Time;durP1;ratioP1;P1;durP2;ratioP2;P2;SDS_P1;SDS_P2;PMS_P1;PMS_P2;Temp;Humidity;BMP_temperature;BMP_pressure;BME280_temperature;BME280_humidity;BME280_pressure;Samples;Min_cycle;Max_cycle;Signal;HPM_P1;HPM_P2
2022/09/11 04:16:24;;;;;;;2.33;1.73;;;;;;;15.54;100.00;100380.78;5492066;23;20094;-68
2022/09/11 04:18:54;;;;;;;3.47;2.25;;;;;;;15.56;100.00;100384.91;4973408;28;20093;-68
2022/09/11 04:21:21;;;;;;;5.20;2.20;;;;;;;15.51;100.00;100383.84;4972304;28;20038;-69
2022/09/11 04:23:52;;;;;;;3.63;2.25;;;;;;;15.51;100.00;100390.03;4989183;28;20050;-68
2022/09/11 04:26:20;;;;;;;3.42;2.22;;;;;;;15.53;100.00;100387.19;4974246;28;20489;-68
2022/09/11 04:28:50;;;;;;;4.65;2.60;;;;;;;15.47;100.00;100394.19;4975101;28;20106;-69
2022/09/11 04:31:17;;;;;;;5.28;2.53;;;;;;;15.48;100.00;100395.81;4972864;28;20473;-68
2022/09/11 04:33:44;;;;;;;5.95;2.95;;;;;;;15.45;100.00;100397.06;4989331;28;20035;-69
2022/09/11 04:36:13;;;;;;;5.05;2.20;;;;;;;15.46;100.00;100405.94;4989010;28;20050;-67
2022/09/11 04:38:42;;;;;;;4.18;2.40;;;;;;;15.46;100.00;100405.94;4989211;28;20034;-69
2022/09/11 04:41:10;;;;;;;4.55;3.00;;;;;;;15.44;100.00;100405.31;4972770;28;20061;-69
2022/09/11 04:43:38;;;;;;;7.70;2.63;;;;;;;15.43;100.00;100404.47;4974484;28;20537;-67
2022/09/11 04:46:15;;;;;;;4.93;2.55;;;;;;;15.43;100.00;100415.22;4973034;28;20031;-68
2022/09/11 04:48:46;;;;;;;4.38;2.40;;;;;;;15.43;100.00;100415.22;4988937;28;20054;-68
2022/09/11 04:51:20;;;;;;;4.55;2.35;;;;;;;15.44;100.00;100419.53;4988766;28;20099;-68
2022/09/11 04:53:47;;;;;;;4.13;2.55;;;;;;;15.39;100.00;100416.66;4972840;28;20065;-68
2022/09/11 04:56:15;;;;;;;3.97;2.22;;;;;;;15.42;100.00;100423.47;4972550;28;20030;-69
2022/09/11 04:58:44;;;;;;;6.82;2.95;;;;;;;15.43;100.00;100419.75;4988968;28;20485;-68
2022/09/11 05:01:14;;;;;;;4.03;2.75;;;;;;;15.42;100.00;100421.63;4972383;28;20049;-68
2022/09/11 05:03:42;;;;;;;3.60;2.25;;;;;;;15.40;100.00;100426.38;4988739;28;20038;-69
2022/09/11 05:06:10;;;;;;;5.03;2.95;;;;;;;15.42;100.00;100429.66;4972436;28;20141;-68
2022/09/11 05:08:36;;;;;;;;;;;;;;;15.41;100.00;100428.00;4989143;28;20043;-68
2022/09/11 05:11:04;;;;;;;4.30;2.67;;;;;;;15.41;100.00;100430.69;4972186;28;20435;-68
2022/09/11 05:13:32;;;;;;;7.35;3.58;;;;;;;15.42;100.00;100429.66;4972492;28;20051;-69
2022/09/11 05:16:02;;;;;;;7.20;2.78;;;;;;;15.42;100.00;100435.03;4972109;28;20027;-69
2022/09/11 05:18:29;;;;;;;4.03;2.65;;;;;;;15.43;100.00;100434.00;4988419;28;20042;-68
2022/09/11 05:21:03;;;;;;;4.82;2.40;;;;;;;15.43;100.00;100428.63;4988357;28;20677;-69
2022/09/11 05:23:30;;;;;;;8.50;3.28;;;;;;;15.44;100.00;100429.47;4988358;28;20126;-69
2022/09/11 05:25:58;;;;;;;7.63;2.50;;;;;;;15.45;100.00;100437.34;4972191;28;20046;-69
2022/09/11 05:28:25;;;;;;;4.83;2.93;;;;;;;15.44;100.00;100445.56;4988322;28;20443;-69
2022/09/11 05:30:55;;;;;;;4.60;2.58;;;;;;;15.46;100.00;100439.00;4988054;28;20123;-70
2022/09/11 05:33:22;;;;;;;7.55;2.45;;;;;;;15.46;100.00;100438.16;4973285;28;20074;-68
2022/09/11 05:36:03;;;;;;;5.18;2.75;;;;;;;15.44;100.00;100435.66;4971729;28;20026;-68
2022/09/11 05:38:28;;;;;;;6.65;2.53;;;;;;;15.47;100.00;100437.13;4973043;28;20039;-68
2022/09/11 05:40:54;;;;;;;5.07;2.67;;;;;;;15.47;100.00;100442.50;4987836;28;20038;-68
2022/09/11 05:43:21;;;;;;;6.80;2.80;;;;;;;15.51;100.00;100450.97;4971886;28;20039;-68
2022/09/11 05:45:56;;;;;;;3.47;1.87;;;;;;;15.51;100.00;100454.47;4955820;28;20039;-68
2022/09/11 05:48:23;;;;;;;5.65;3.15;;;;;;;15.47;100.00;100454.06;4987859;28;20117;-68
2022/09/11 05:50:54;;;;;;;5.73;2.90;;;;;;;15.53;100.00;100470.41;4971270;28;20069;-68
2022/09/11 05:53:22;;;;;;;4.90;2.60;;;;;;;15.53;100.00;100465.84;4987881;28;20031;-68
2022/09/11 05:55:48;;;;;;;9.68;4.35;;;;;;;15.53;100.00;100462.34;4971459;28;20034;-69
2022/09/11 05:58:17;;;;;;;21.88;10.00;;;;;;;15.60;100.00;100482.00;4965850;28;20130;-68
2022/09/11 06:00:47;;;;;;;8.27;3.60;;;;;;;15.60;100.00;100473.94;4967890;28;20041;-68
2022/09/11 06:03:18;;;;;;;17.35;4.35;;;;;;;15.62;100.00;100482.66;4971566;28;20121;-68
2022/09/11 06:05:44;;;;;;;9.05;4.57;;;;;;;15.66;100.00;100483.91;4971737;28;20568;-69
2022/09/11 06:08:11;;;;;;;5.50;3.38;;;;;;;15.66;100.00;100483.91;4971371;28;20043;-68
2022/09/11 06:10:46;;;;;;;4.85;3.53;;;;;;;15.71;100.00;100489.47;4971149;28;20043;-68
2022/09/11 06:13:16;;;;;;;7.88;3.58;;;;;;;15.75;100.00;100501.50;4971436;28;20519;-68
2022/09/11 06:15:46;;;;;;;6.68;3.65;;;;;;;15.68;100.00;100489.91;4971143;28;20038;-62
2022/09/11 06:18:13;;;;;;;8.10;3.53;;;;;;;15.75;100.00;100501.50;4971223;28;20039;-62
2022/09/11 06:20:38;;;;;;;7.57;3.95;;;;;;;15.76;100.00;100500.47;4970851;28;20046;-61
2022/09/11 06:23:09;;;;;;;5.80;2.95;;;;;;;15.82;100.00;100499.66;4971302;28;20517;-63
2022/09/11 06:25:36;;;;;;;7.78;3.38;;;;;;;15.84;100.00;100513.72;4971217;28;20039;-62
2022/09/11 06:28:02;;;;;;;11.57;4.32;;;;;;;15.89;100.00;100511.25;4971323;28;20502;-61
2022/09/11 06:30:29;;;;;;;5.43;3.28;;;;;;;15.92;100.00;100507.34;4970928;28;20060;-61
2022/09/11 06:32:55;;;;;;;5.28;3.58;;;;;;;15.92;100.00;100507.34;4971058;28;20053;-64
2022/09/11 06:35:22;;;;;;;9.02;3.13;;;;;;;15.97;100.00;100511.09;4971475;28;20027;-63
2022/09/11 06:37:48;;;;;;;10.97;3.60;;;;;;;15.99;100.00;100514.41;4972660;28;20550;-62
2022/09/11 06:40:13;;;;;;;7.13;3.40;;;;;;;16.07;100.00;100520.63;4972120;28;20058;-63
2022/09/11 06:42:39;;;;;;;6.65;3.75;;;;;;;16.07;100.00;100517.94;4971354;28;20038;-62
2022/09/11 06:45:06;;;;;;;7.78;3.40;;;;;;;16.16;100.00;100520.22;5003440;28;20038;-61
2022/09/11 06:47:31;;;;;;;8.25;3.47;;;;;;;16.19;100.00;100522.50;4972530;28;20061;-61
2022/09/11 06:49:56;;;;;;;10.43;4.05;;;;;;;16.22;100.00;100529.31;4974819;28;20050;-63
2022/09/11 06:52:34;;;;;;;6.22;2.92;;;;;;;16.25;100.00;100524.38;4974713;28;20055;-62
2022/09/11 06:55:13;;;;;;;5.28;3.38;;;;;;;16.17;100.00;100505.78;4971090;28;20708;-60
2022/09/11 06:57:40;;;;;;;8.98;4.25;;;;;;;16.29;100.00;100522.09;4974624;28;20091;-60
2022/09/11 07:00:09;;;;;;;7.50;4.00;;;;;;;16.32;100.00;100523.56;4974174;28;20026;-61
2022/09/11 07:02:38;;;;;;;6.10;3.47;;;;;;;16.37;100.00;100521.09;4974509;28;20038;-57
2022/09/11 07:05:04;;;;;;;6.78;3.25;;;;;;;16.40;100.00;100524.19;4974425;28;20075;-57
2022/09/11 07:07:30;;;;;;;8.13;3.42;;;;;;;16.40;100.00;100520.69;4974420;28;20042;-58
2022/09/11 07:09:56;;;;;;;6.53;3.53;;;;;;;16.41;100.00;100520.47;4975426;28;20058;-60
2022/09/11 07:12:22;;;;;;;6.43;3.08;;;;;;;16.47;100.00;100530.41;4973759;28;20049;-61
2022/09/11 07:14:49;;;;;;;5.95;3.50;;;;;;;16.50;100.00;100530.03;4990356;28;20094;-60
2022/09/11 07:17:16;;;;;;;7.10;3.92;;;;;;;16.54;100.00;100527.72;4974242;28;20086;-58
2022/09/11 07:19:43;;;;;;;12.05;6.07;;;;;;;16.55;100.00;100522.13;4974135;28;20039;-60
2022/09/11 07:22:09;;;;;;;7.05;3.70;;;;;;;16.64;100.00;100527.34;4973359;28;20038;-61
2022/09/11 07:24:34;;;;;;;11.05;4.53;;;;;;;16.66;100.00;100526.09;4974184;28;20121;-56
2022/09/11 07:27:00;;;;;;;7.35;3.75;;;;;;;16.69;100.00;100531.06;4975338;28;20047;-59
2022/09/11 07:29:30;;;;;;;7.28;3.78;;;;;;;16.77;100.00;100538.97;4973857;28;20097;-57
2022/09/11 07:31:57;;;;;;;6.25;3.40;;;;;;;16.84;100.00;100538.97;4989462;28;20043;-60
2022/09/11 07:34:23;;;;;;;6.80;3.50;;;;;;;16.96;100.00;100537.31;4973750;28;20410;-61
2022/09/11 07:36:50;;;;;;;7.72;3.95;;;;;;;17.07;100.00;100542.03;4973917;28;20035;-60
2022/09/11 07:39:16;;;;;;;8.63;4.07;;;;;;;17.13;100.00;100547.63;4973852;28;20049;-61
2022/09/11 07:41:49;;;;;;;7.55;4.00;;;;;;;17.20;100.00;100551.13;4973287;28;20046;-60
2022/09/11 07:44:21;;;;;;;7.28;4.05;;;;;;;17.23;100.00;100556.13;4973636;28;20038;-57
2022/09/11 07:46:47;;;;;;;6.47;3.90;;;;;;;17.28;100.00;100549.06;4990050;28;20038;-59
2022/09/11 07:49:14;;;;;;;7.95;4.25;;;;;;;17.34;99.97;100553.63;4973798;28;20043;-58
2022/09/11 07:51:41;;;;;;;6.20;3.95;;;;;;;17.43;99.62;100554.22;4972937;28;20039;-59
2022/09/11 07:54:08;;;;;;;6.88;3.58;;;;;;;17.56;100.00;100559.56;4973275;28;20112;-60
2022/09/11 07:56:35;;;;;;;7.18;3.80;;;;;;;17.68;97.63;100557.06;4973458;28;20026;-57
2022/09/11 07:59:06;;;;;;;7.80;3.83;;;;;;;17.77;96.37;100552.28;4972980;28;20117;-60
2022/09/11 08:01:33;;;;;;;7.28;4.22;;;;;;;17.89;94.90;100553.28;4972619;28;20039;-57
2022/09/11 08:04:02;;;;;;;7.63;4.10;;;;;;;17.85;94.23;100557.44;4973826;28;20473;-62
2022/09/11 08:06:31;;;;;;;9.20;4.30;;;;;;;17.93;94.20;100554.50;4973425;28;20122;-64
2022/09/11 08:09:02;;;;;;;6.47;4.47;;;;;;;17.98;95.79;100556.53;4973651;28;20043;-64
2022/09/11 08:11:33;;;;;;;7.20;4.05;;;;;;;17.92;94.06;100552.84;4973497;28;20034;-64
2022/09/11 08:13:58;;;;;;;;;;;;;;;17.96;94.22;100554.06;4973919;28;20420;-64
2022/09/11 08:16:25;;;;;;;7.18;4.53;;;;;;;17.95;94.09;100554.28;4973744;28;19926;-63
2022/09/11 08:18:53;;;;;;;7.95;4.53;;;;;;;17.96;92.65;100554.06;4973538;28;20043;-63
2022/09/11 08:21:21;;;;;;;5.95;4.22;;;;;;;17.99;92.71;100564.41;4972996;28;20093;-63
2022/09/11 08:23:47;;;;;;;8.30;3.97;;;;;;;17.99;92.30;100564.41;4973321;28;20050;-63
2022/09/11 08:26:20;;;;;;;7.85;4.95;;;;;;;17.96;92.53;100550.56;4973300;28;20329;-62
2022/09/11 08:28:49;;;;;;;8.43;4.88;;;;;;;18.01;93.66;100562.34;4957290;28;20489;-62
2022/09/11 08:31:20;;;;;;;7.38;4.55;;;;;;;18.01;93.71;100559.66;4973170;28;20397;-64
2022/09/11 08:33:48;;;;;;;6.68;4.03;;;;;;;17.92;92.29;100557.41;4973038;28;20092;-62
2022/09/11 08:36:15;;;;;;;8.60;4.38;;;;;;;18.03;92.65;100564.81;4941023;28;20434;-63
2022/09/11 08:38:42;;;;;;;9.43;4.43;;;;;;;18.02;94.12;100568.56;4973116;28;20091;-64
2022/09/11 08:41:32;;;;;;;11.07;4.17;;;;;;;18.12;91.58;100569.75;4973128;28;20450;-64
2022/09/11 08:44:05;;;;;;;8.45;5.10;;;;;;;18.23;91.89;100570.94;4974508;28;20039;-63
2022/09/11 08:46:35;;;;;;;7.60;4.28;;;;;;;18.29;89.85;100569.25;4974753;28;20331;-63
2022/09/11 08:49:20;;;;;;;9.82;5.10;;;;;;;18.39;89.46;100570.44;4973071;28;20047;-63
2022/09/11 08:51:48;;;;;;;8.60;5.22;;;;;;;18.47;90.57;100571.22;4972588;28;20082;-63
2022/09/11 08:54:26;;;;;;;8.27;4.97;;;;;;;18.55;89.33;100571.78;4972875;28;20445;-63
2022/09/11 08:57:23;;;;;;;9.82;4.53;;;;;;;18.68;91.63;100568.22;4972800;28;20035;-62
2022/09/11 09:00:05;;;;;;;9.25;4.90;;;;;;;18.72;88.74;100574.00;4931890;28;20054;-64
2022/09/11 09:02:39;;;;;;;8.23;4.80;;;;;;;19.01;87.74;100570.66;4972440;28;20038;-62
2022/09/11 09:05:27;;;;;;;8.82;4.65;;;;;;;19.19;84.96;100572.56;4972530;28;20101;-62
2022/09/11 09:08:21;;;;;;;8.73;4.80;;;;;;;19.40;86.02;100568.63;4926800;28;20047;-63
2022/09/11 09:10:56;;;;;;;8.13;4.72;;;;;;;19.51;83.37;100574.13;4971734;28;20038;-64
2022/09/11 09:13:41;;;;;;;6.32;3.63;;;;;;;19.46;81.88;100573.97;4973179;28;20081;-63
2022/09/11 09:16:15;;;;;;;10.13;4.45;;;;;;;19.33;84.26;100562.47;4972110;28;20026;-61
2022/09/11 09:18:49;;;;;;;7.28;4.25;;;;;;;19.37;83.01;100578.00;4972304;28;20043;-64
2022/09/11 09:21:26;;;;;;;7.75;4.38;;;;;;;19.35;83.58;100585.50;4972008;28;20030;-63
2022/09/11 09:23:54;;;;;;;7.10;4.32;;;;;;;19.36;82.46;100575.50;4972117;28;20521;-63
2022/09/11 09:26:28;;;;;;;7.80;4.90;;;;;;;19.32;81.70;100579.72;4972192;28;20047;-64
2022/09/11 09:28:58;;;;;;;6.75;4.47;;;;;;;19.29;82.68;100580.16;4973476;28;20030;-63
2022/09/11 09:31:28;;;;;;;8.63;4.18;;;;;;;19.30;83.08;100581.81;4971837;28;20070;-63
2022/09/11 09:34:04;;;;;;;7.35;3.83;;;;;;;19.30;82.66;100577.25;4956144;28;20528;-63
2022/09/11 09:36:36;;;;;;;7.03;4.00;;;;;;;19.25;83.65;100572.50;4971877;28;20114;-63
2022/09/11 09:39:15;;;;;;;7.18;4.70;;;;;;;19.31;83.94;100578.06;4971993;28;20042;-64
2022/09/11 09:42:07;;;;;;;6.95;4.03;;;;;;;19.23;84.62;100580.03;4972863;28;20053;-62
2022/09/11 09:45:01;;;;;;;5.93;3.95;;;;;;;19.33;83.87;100567.88;4971869;28;20062;-64
2022/09/11 09:47:28;;;;;;;7.53;4.10;;;;;;;19.68;83.04;100568.97;4973148;28;20049;-64
2022/09/11 09:49:56;;;;;;;8.00;4.63;;;;;;;20.13;79.04;100573.22;4973110;28;20037;-64
2022/09/11 09:52:25;;;;;;;6.50;3.85;;;;;;;20.27;81.60;100575.50;4972841;28;20045;-64
2022/09/11 09:54:54;;;;;;;7.63;4.60;;;;;;;20.24;79.02;100572.44;4974383;28;20042;-62
2022/09/11 09:57:23;;;;;;;6.63;4.05;;;;;;;20.75;78.46;100571.13;4971676;28;20049;-64
2022/09/11 10:00:00;;;;;;;6.13;3.60;;;;;;;21.12;75.23;100569.84;4972932;28;20528;-65
2022/09/11 10:02:49;;;;;;;7.07;4.30;;;;;;;21.92;70.38;100568.41;4971593;28;20038;-62
2022/09/11 10:05:29;;;;;;;6.95;4.13;;;;;;;22.61;68.19;100563.75;4972851;28;20038;-64
2022/09/11 10:08:06;;;;;;;5.40;3.67;;;;;;;22.89;64.54;100552.06;4972881;28;20034;-65
2022/09/11 10:10:36;;;;;;;5.57;3.85;;;;;;;23.27;62.31;100564.84;4971359;28;20042;-65
2022/09/11 10:13:07;;;;;;;4.43;3.40;;;;;;;23.50;61.86;100563.84;4972741;28;20046;-65
2022/09/11 10:15:38;;;;;;;6.00;3.58;;;;;;;23.87;59.63;100546.94;4972534;28;20505;-65
2022/09/11 10:18:31;;;;;;;6.15;3.50;;;;;;;23.89;58.66;100552.13;4972807;28;20047;-65
2022/09/11 10:21:12;;;;;;;4.43;3.30;;;;;;;23.56;58.21;100560.13;4972510;28;20402;-66
2022/09/11 10:24:01;;;;;;;5.65;3.85;;;;;;;24.26;57.70;100552.28;4972394;28;20457;-66
2022/09/11 10:26:34;;;;;;;3.83;2.92;;;;;;;24.71;55.57;100551.91;4972680;28;20402;-65
2022/09/11 10:29:16;;;;;;;4.97;3.42;;;;;;;24.81;53.50;100552.00;4973155;28;20050;-66
2022/09/11 10:31:49;;;;;;;6.13;3.50;;;;;;;24.80;53.10;100541.38;4972380;28;20035;-66
2022/09/11 10:34:18;;;;;;;3.10;2.75;;;;;;;24.84;53.71;100539.75;4972660;28;20033;-65
2022/09/11 10:36:52;;;;;;;5.07;3.17;;;;;;;24.62;54.63;100535.22;4972494;28;20030;-65
2022/09/11 10:39:20;;;;;;;4.35;3.03;;;;;;;24.07;57.22;100547.19;4972685;28;20046;-66
2022/09/11 10:41:57;;;;;;;4.53;3.03;;;;;;;23.69;59.31;100547.25;4972122;28;20070;-65
2022/09/11 10:44:24;;;;;;;4.85;3.15;;;;;;;23.19;63.40;100548.16;4972480;28;20034;-66
2022/09/11 10:47:16;;;;;;;4.40;3.03;;;;;;;22.68;64.00;100544.59;4972374;28;20039;-66
2022/09/11 10:49:41;;;;;;;5.10;2.95;;;;;;;23.45;61.43;100541.19;4971868;28;20807;-65
2022/09/11 10:52:07;;;;;;;5.55;2.58;;;;;;;24.22;57.59;100535.63;4971404;28;20118;-65
2022/09/11 10:54:39;;;;;;;3.60;2.72;;;;;;;24.28;55.46;100536.50;4987114;28;20390;-65
2022/09/11 10:57:15;;;;;;;4.47;2.47;;;;;;;24.66;55.41;100534.72;4972134;28;20078;-66
2022/09/11 10:59:40;;;;;;;5.15;2.60;;;;;;;25.32;53.93;100540.69;4987274;28;20414;-66
2022/09/11 11:02:19;;;;;;;3.50;2.50;;;;;;;25.43;51.38;100536.94;4986273;28;20050;-65
2022/09/11 11:04:46;;;;;;;3.80;2.40;;;;;;;26.19;50.30;100533.69;4972091;28;20043;-64
2022/09/11 11:07:39;;;;;;;3.30;2.37;;;;;;;25.85;50.41;100539.59;4972009;28;20029;-64
2022/09/11 11:10:07;;;;;;;4.13;2.10;;;;;;;25.17;54.09;100544.97;4969924;28;20059;-64
2022/09/11 11:12:59;;;;;;;2.63;2.25;;;;;;;24.53;56.33;100534.06;4971413;28;20031;-64
2022/09/11 11:15:29;;;;;;;3.95;2.17;;;;;;;24.14;57.94;100533.38;4971848;28;20053;-65
2022/09/11 11:18:08;;;;;;;3.08;2.50;;;;;;;23.60;58.55;100538.66;4971993;28;20055;-65
2022/09/11 11:21:06;;;;;;;4.28;2.47;;;;;;;23.68;59.65;100542.91;4971316;28;20406;-65
2022/09/11 11:23:48;;;;;;;3.45;2.42;;;;;;;23.97;56.39;100535.34;4972130;28;20030;-65
2022/09/11 11:26:19;;;;;;;3.03;2.30;;;;;;;24.39;58.94;100529.28;4986827;28;20031;-64
2022/09/11 11:29:13;;;;;;;3.15;2.30;;;;;;;25.51;55.25;100530.97;4971822;28;20034;-64
2022/09/11 11:32:00;;;;;;;1.77;1.67;;;;;;;26.25;53.47;100535.34;4971034;28;20121;-64
2022/09/11 11:34:51;;;;;;;2.70;2.25;;;;;;;26.42;49.00;100529.66;4972085;28;20059;-64
2022/09/11 11:37:23;;;;;;;2.60;1.90;;;;;;;27.47;47.63;100521.66;4975349;28;20118;-64
2022/09/11 11:40:11;;;;;;;3.45;1.75;;;;;;;27.59;45.87;100529.56;4990145;28;20034;-64
2022/09/11 11:42:46;;;;;;;3.83;2.20;;;;;;;27.04;46.27;100534.03;4973911;28;20529;-64
2022/09/11 11:45:41;;;;;;;2.22;2.03;;;;;;;27.67;46.30;100539.91;4975330;28;20034;-63
2022/09/11 11:48:26;;;;;;;2.25;1.80;;;;;;;27.81;47.03;100532.75;4971349;28;20426;-64
2022/09/11 11:50:57;;;;;;;2.67;1.83;;;;;;;28.29;43.42;100533.03;4974398;28;20042;-65
2022/09/11 11:53:24;;;;;;;7.35;2.13;;;;;;;28.35;41.90;100531.91;4974941;28;20050;-65
2022/09/11 11:55:57;;;;;;;2.65;1.88;;;;;;;29.08;42.14;100528.34;4974741;28;20049;-65
2022/09/11 11:58:31;;;;;;;3.70;2.17;;;;;;;28.78;41.71;100523.94;4973611;28;20054;-66
2022/09/11 12:01:00;;;;;;;2.17;1.70;;;;;;;28.98;41.62;100536.66;4974017;28;20077;-65
2022/09/11 12:03:41;;;;;;;2.45;1.70;;;;;;;29.38;40.77;100540.09;4973439;28;20030;-65
2022/09/11 12:06:07;;;;;;;2.17;1.83;;;;;;;30.13;39.59;100534.00;4974672;28;20046;-65
2022/09/11 12:08:42;;;;;;;2.45;1.77;;;;;;;29.61;38.86;100531.06;4974579;28;20066;-66
2022/09/11 12:11:11;;;;;;;1.95;1.70;;;;;;;30.17;38.84;100519.34;4974084;28;20097;-65
2022/09/11 12:13:42;;;;;;;2.30;1.63;;;;;;;29.92;39.38;100531.47;4974551;28;20026;-66
2022/09/11 12:16:30;;;;;;;1.67;1.42;;;;;;;29.45;38.43;100522.16;4974501;28;20039;-65
2022/09/11 12:19:06;;;;;;;3.13;1.73;;;;;;;29.59;39.58;100521.47;4974284;28;20501;-64
2022/09/11 12:21:38;;;;;;;2.17;1.80;;;;;;;29.62;40.13;100526.41;4961206;28;20094;-64
2022/09/11 12:24:04;;;;;;;2.92;1.90;;;;;;;29.36;39.66;100528.59;4955131;29;20168;-64
2022/09/11 12:26:30;;;;;;;1.90;1.55;;;;;;;29.84;38.96;100517.59;4968870;28;20046;-63
2022/09/11 12:29:11;;;;;;;3.40;2.55;;;;;;;29.36;38.58;100514.88;4974555;28;20434;-65
2022/09/11 12:31:48;;;;;;;2.53;1.60;;;;;;;29.18;39.95;100516.44;4974225;28;20034;-64
2022/09/11 12:34:17;;;;;;;2.05;1.70;;;;;;;29.50;38.66;100518.56;4974430;28;20038;-63
2022/09/11 12:36:50;;;;;;;1.80;1.58;;;;;;;29.37;37.96;100513.75;4974175;28;20482;-65
2022/09/11 12:39:36;;;;;;;2.97;1.77;;;;;;;29.06;38.13;100516.00;4974278;28;20044;-66
2022/09/11 12:42:21;;;;;;;2.50;1.85;;;;;;;27.99;41.58;100511.31;4974196;28;20037;-65
2022/09/11 12:44:47;;;;;;;4.18;3.00;;;;;;;28.53;40.86;100505.78;4974464;28;20037;-66
2022/09/11 12:47:27;;;;;;;4.05;2.75;;;;;;;28.65;41.18;100508.16;4974253;28;20518;-65
2022/09/11 12:49:56;;;;;;;2.60;1.90;;;;;;;28.66;41.60;100501.56;4974299;28;20038;-67
2022/09/11 12:52:44;;;;;;;3.25;2.35;;;;;;;29.20;40.38;100509.53;4973985;28;20129;-66
2022/09/11 12:55:30;;;;;;;3.35;1.73;;;;;;;29.01;38.61;100503.16;4974086;28;20053;-66
2022/09/11 12:58:01;;;;;;;2.13;1.77;;;;;;;29.08;39.33;100497.34;4974169;28;20042;-67
2022/09/11 13:00:42;;;;;;;3.35;1.90;;;;;;;29.96;38.95;100499.59;4973794;28;20046;-66
2022/09/11 13:03:21;;;;;;;2.28;1.90;;;;;;;29.62;37.20;100501.69;4974185;28;20042;-65
2022/09/11 13:05:58;;;;;;;4.22;1.30;;;;;;;29.83;36.05;100505.00;4973879;28;20435;-64
2022/09/11 13:08:27;;;;;;;1.67;1.40;;;;;;;29.06;38.13;100497.63;4973843;28;20545;-66
2022/09/11 13:11:13;;;;;;;1.90;1.60;;;;;;;28.86;39.71;100489.59;4973517;28;20047;-64
2022/09/11 13:13:43;;;;;;;2.53;1.63;;;;;;;29.31;38.26;100484.75;4972310;28;20089;-64
2022/09/11 13:16:19;;;;;;;1.42;1.08;;;;;;;29.57;37.55;100490.78;4973663;28;20514;-64
2022/09/11 13:18:45;;;;;;;1.40;1.30;;;;;;;29.92;36.62;100481.25;4967323;28;20043;-64
2022/09/11 13:21:10;;;;;;;1.42;1.30;;;;;;;30.13;35.13;100482.63;4962691;28;20448;-64
2022/09/11 13:23:36;;;;;;;1.85;1.38;;;;;;;29.85;36.38;100487.09;4961454;28;20039;-64
2022/09/11 13:26:04;;;;;;;1.42;1.33;;;;;;;30.25;35.96;100476.66;4964473;28;20272;-64
2022/09/11 13:28:30;;;;;;;1.40;1.13;;;;;;;29.83;37.49;100475.59;4962384;28;20038;-64
2022/09/11 13:31:01;;;;;;;2.53;1.30;;;;;;;30.05;35.05;100469.50;4962604;28;20049;-65
2022/09/11 13:33:29;;;;;;;1.50;1.17;;;;;;;29.73;37.91;100473.00;4966830;28;20054;-64
2022/09/11 13:36:01;;;;;;;1.48;1.15;;;;;;;29.45;37.50;100475.53;4961457;28;20019;-64
2022/09/11 13:38:35;;;;;;;1.65;1.35;;;;;;;28.11;39.44;100457.06;4963986;28;20046;-64
2022/09/11 13:41:17;;;;;;;1.38;1.27;;;;;;;27.09;41.70;100464.91;4962417;28;20564;-65
2022/09/11 13:43:50;;;;;;;1.40;1.30;;;;;;;26.41;41.51;100459.78;4962095;28;20039;-65
2022/09/11 13:46:15;;;;;;;1.80;1.20;;;;;;;26.77;42.84;100463.28;4963690;28;20513;-63
2022/09/11 13:48:47;;;;;;;1.50;1.30;;;;;;;27.58;42.10;100465.81;4962125;28;20062;-65
2022/09/11 13:51:15;;;;;;;1.30;1.15;;;;;;;27.81;39.56;100444.38;4961010;28;20375;-64
2022/09/11 13:53:44;;;;;;;1.45;1.17;;;;;;;27.72;40.73;100452.38;4958852;28;20117;-65
2022/09/11 13:56:46;;;;;;;2.63;1.20;;;;;;;27.23;42.20;100450.34;4953595;28;20039;-65
2022/09/11 13:59:43;;;;;;;1.80;1.40;;;;;;;26.71;43.04;100443.34;4953455;28;20039;-66
2022/09/11 14:02:42;;;;;;;1.40;1.10;;;;;;;26.52;44.00;100445.00;4953319;28;20090;-66
2022/09/11 14:05:25;;;;;;;1.45;1.35;;;;;;;25.90;43.44;100441.38;4952521;28;20096;-64
2022/09/11 14:07:50;;;;;;;1.75;1.30;;;;;;;25.40;45.45;100444.75;4953908;28;20387;-65
2022/09/11 14:10:26;;;;;;;1.98;1.20;;;;;;;25.37;47.45;100442.56;4935950;29;20037;-64
2022/09/11 14:13:04;;;;;;;1.98;1.00;;;;;;;25.38;47.22;100431.38;4953488;28;20041;-64
2022/09/11 14:15:56;;;;;;;1.63;1.33;;;;;;;25.55;47.29;100431.16;4953163;28;20046;-64
2022/09/11 14:18:36;;;;;;;2.05;1.50;;;;;;;25.59;46.85;100431.44;4953429;28;20051;-64
2022/09/11 14:21:05;;;;;;;1.50;1.10;;;;;;;24.79;46.01;100434.31;4953143;28;20038;-66
2022/09/11 14:23:30;;;;;;;2.08;1.40;;;;;;;24.75;47.76;100419.56;4953229;28;20098;-65
2022/09/11 14:26:15;;;;;;;1.27;1.15;;;;;;;24.88;48.57;100416.38;4953274;29;20110;-63
2022/09/11 14:28:53;;;;;;;1.60;1.50;;;;;;;24.71;48.65;100423.88;4952117;29;20038;-64
2022/09/11 14:31:29;;;;;;;1.40;1.30;;;;;;;24.28;49.22;100422.19;4953036;29;20039;-63
2022/09/11 14:34:16;;;;;;;1.48;1.20;;;;;;;24.61;49.23;100411.03;4953370;28;20174;-64
2022/09/11 14:36:43;;;;;;;2.05;1.60;;;;;;;24.53;50.54;100408.00;4953033;28;20055;-65
2022/09/11 14:39:28;;;;;;;;;;;;;;;24.71;49.33;100406.72;4953602;28;20122;-64
2022/09/11 14:41:54;;;;;;;1.55;1.10;;;;;;;24.61;49.53;100402.88;4951762;28;20017;-65
2022/09/11 14:44:21;;;;;;;1.58;1.30;;;;;;;24.94;50.40;100408.25;4951826;29;20050;-64
2022/09/11 14:46:47;;;;;;;2.43;1.80;;;;;;;24.55;53.13;100403.09;4953020;28;20384;-62
2022/09/11 14:49:14;;;;;;;1.45;1.30;;;;;;;24.62;49.51;100407.22;4953269;28;20082;-64
2022/09/11 14:51:40;;;;;;;1.25;1.10;;;;;;;24.80;49.64;100397.81;4952902;28;20605;-65
2022/09/11 14:54:14;;;;;;;1.40;1.30;;;;;;;24.61;49.34;100399.34;4953097;28;20079;-64
2022/09/11 14:56:41;;;;;;;1.88;1.27;;;;;;;24.63;48.70;100400.69;4953076;28;20121;-64
2022/09/11 14:59:06;;;;;;;1.60;1.30;;;;;;;24.34;48.97;100394.78;4953125;28;20039;-64
2022/09/11 15:01:32;;;;;;;1.77;1.40;;;;;;;24.25;49.21;100390.84;4952742;28;20291;-61
2022/09/11 15:04:00;;;;;;;1.48;1.38;;;;;;;24.25;50.15;100396.31;4953296;28;20094;-64
2022/09/11 15:06:25;;;;;;;2.80;1.40;;;;;;;24.07;48.92;100397.53;4952888;28;20061;-64
2022/09/11 15:08:51;;;;;;;2.13;1.38;;;;;;;24.10;49.40;100397.00;4953065;28;20054;-63
2022/09/11 15:11:16;;;;;;;1.13;0.98;;;;;;;24.01;50.92;100400.47;4955974;28;20130;-62
2022/09/11 15:13:43;;;;;;;1.33;1.15;;;;;;;24.00;51.07;100394.22;4956688;28;20035;-63
2022/09/11 15:16:09;;;;;;;2.85;1.55;;;;;;;23.90;52.62;100382.41;4955249;29;20509;-63
2022/09/11 15:18:35;;;;;;;3.20;2.20;;;;;;;23.89;51.25;100392.47;4956521;28;20040;-62
2022/09/11 15:21:00;;;;;;;1.52;1.25;;;;;;;23.87;51.38;100389.19;4956223;29;20524;-61
2022/09/11 15:23:26;;;;;;;2.67;1.65;;;;;;;23.82;52.38;100383.69;4956483;28;20039;-64
2022/09/11 15:26:00;;;;;;;2.30;1.73;;;;;;;23.74;52.13;100376.81;4956360;28;20078;-64
2022/09/11 15:28:28;;;;;;;1.40;1.30;;;;;;;23.74;51.03;100385.00;4956232;28;20138;-63
2022/09/11 15:30:57;;;;;;;2.60;1.00;;;;;;;23.58;51.29;100382.31;4956251;28;20521;-64
2022/09/11 15:33:24;;;;;;;1.77;1.38;;;;;;;23.56;51.66;100382.59;4956086;28;20050;-64
2022/09/11 15:35:49;;;;;;;1.50;1.13;;;;;;;23.39;50.15;100381.84;4956030;28;20122;-64
2022/09/11 15:38:15;;;;;;;1.20;1.02;;;;;;;23.29;49.18;100366.25;4956317;28;20126;-63
2022/09/11 15:40:41;;;;;;;2.15;1.30;;;;;;;23.29;52.23;100377.13;4954610;29;20057;-64
2022/09/11 15:43:06;;;;;;;1.27;1.10;;;;;;;23.39;53.07;100371.78;4956326;28;20043;-63
2022/09/11 15:45:31;;;;;;;1.58;1.35;;;;;;;23.36;52.11;100372.31;4956014;29;20098;-64
2022/09/11 15:48:01;;;;;;;2.75;1.10;;;;;;;23.28;52.98;100375.47;4955089;28;20046;-64
2022/09/11 15:50:28;;;;;;;1.42;1.20;;;;;;;23.40;52.60;100372.59;4955712;28;20283;-64
2022/09/11 15:52:54;;;;;;;;;;;;;;;23.44;52.13;100368.31;4956430;28;20035;-63
2022/09/11 15:55:20;;;;;;;1.83;1.20;;;;;;;23.33;52.17;100369.25;4955659;29;19928;-63
2022/09/11 15:57:45;;;;;;;1.30;1.20;;;;;;;23.19;52.24;100363.41;4956092;28;20455;-64
2022/09/11 16:00:11;;;;;;;1.90;1.35;;;;;;;23.27;53.02;100357.50;4955783;28;20345;-64
2022/09/11 16:02:41;;;;;;;1.73;1.42;;;;;;;23.18;52.96;100348.19;4955894;28;20094;-64